sensor_id;sensor_type;location;lat;lon;timestamp;temperature;humidity
54264;DHT22;40178;53.042;6.406;2022-09-12T00:00:43;12.90;99.90
54264;DHT22;40178;53.042;6.406;2022-09-12T00:03:09;12.90;99.90
54264;DHT22;40178;53.042;6.406;2022-09-12T00:05:43;12.80;99.90
54264;DHT22;40178;53.042;6.406;2022-09-12T00:08:09;12.80;99.90
54264;DHT22;40178;53.042;6.406;2022-09-12T00:10:40;12.80;99.90
54264;DHT22;40178;53.042;6.406;2022-09-12T00:13:06;12.80;99.90
54264;DHT22;40178;53.042;6.406;2022-09-12T00:15:37;12.80;99.90
54264;DHT22;40178;53.042;6.406;2022-09-12T00:18:03;12.80;99.90
54264;DHT22;40178;53.042;6.406;2022-09-12T00:20:29;12.80;99.90
54264;DHT22;40178;53.042;6.406;2022-09-12T00:22:54;12.80;99.90
54264;DHT22;40178;53.042;6.406;2022-09-12T00:25:20;12.80;99.90
54264;DHT22;40178;53.042;6.406;2022-09-12T00:27:46;12.80;99.90
54264;DHT22;40178;53.042;6.406;2022-09-12T00:30:11;12.80;99.90
54264;DHT22;40178;53.042;6.406;2022-09-12T00:32:37;12.80;99.90
54264;DHT22;40178;53.042;6.406;2022-09-12T00:35:02;12.80;99.90
54264;DHT22;40178;53.042;6.406;2022-09-12T00:37:28;12.70;99.90
54264;DHT22;40178;53.042;6.406;2022-09-12T00:39:54;12.70;99.90
54264;DHT22;40178;53.042;6.406;2022-09-12T00:42:19;12.70;99.90
54264;DHT22;40178;53.042;6.406;2022-09-12T00:44:50;12.60;99.90
54264;DHT22;40178;53.042;6.406;2022-09-12T00:47:42;12.60;99.90
54264;DHT22;40178;53.042;6.406;2022-09-12T00:50:12;12.60;99.90
54264;DHT22;40178;53.042;6.406;2022-09-12T00:52:46;12.70;99.90
54264;DHT22;40178;53.042;6.406;2022-09-12T00:55:23;12.60;99.90
54264;DHT22;40178;53.042;6.406;2022-09-12T00:57:58;12.60;99.90
54264;DHT22;40178;53.042;6.406;2022-09-12T01:00:26;12.60;99.90
54264;DHT22;40178;53.042;6.406;2022-09-12T01:02:59;12.50;99.90
54264;DHT22;40178;53.042;6.406;2022-09-12T01:05:27;12.50;99.90
54264;DHT22;40178;53.042;6.406;2022-09-12T01:07:55;12.50;99.90
54264;DHT22;40178;53.042;6.406;2022-09-12T01:10:21;12.50;99.90
54264;DHT22;40178;53.042;6.406;2022-09-12T01:12:48;12.50;99.90
54264;DHT22;40178;53.042;6.406;2022-09-12T01:15:13;12.50;99.90
54264;DHT22;40178;53.042;6.406;2022-09-12T01:18:01;12.40;99.90
54264;DHT22;40178;53.042;6.406;2022-09-12T01:31:05;12.40;99.90
54264;DHT22;40178;53.042;6.406;2022-09-12T01:33:53;12.40;99.90
54264;DHT22;40178;53.042;6.406;2022-09-12T01:39:48;12.40;99.90
54264;DHT22;40178;53.042;6.406;2022-09-12T01:42:31;12.40;99.90
54264;DHT22;40178;53.042;6.406;2022-09-12T01:45:11;12.40;99.90
54264;DHT22;40178;53.042;6.406;2022-09-12T01:47:46;12.30;99.90
54264;DHT22;40178;53.042;6.406;2022-09-12T01:50:24;12.30;99.90
54264;DHT22;40178;53.042;6.406;2022-09-12T01:53:05;12.20;99.90
54264;DHT22;40178;53.042;6.406;2022-09-12T01:55:33;12.10;99.90
54264;DHT22;40178;53.042;6.406;2022-09-12T01:58:19;12.00;99.90
54264;DHT22;40178;53.042;6.406;2022-09-12T02:00:51;12.10;99.90
54264;DHT22;40178;53.042;6.406;2022-09-12T02:03:23;12.00;99.90
54264;DHT22;40178;53.042;6.406;2022-09-12T02:06:02;12.00;99.90
54264;DHT22;40178;53.042;6.406;2022-09-12T02:08:37;12.00;99.90
54264;DHT22;40178;53.042;6.406;2022-09-12T02:11:10;12.00;99.90
54264;DHT22;40178;53.042;6.406;2022-09-12T02:13:41;12.00;99.90
54264;DHT22;40178;53.042;6.406;2022-09-12T02:16:10;12.00;99.90
54264;DHT22;40178;53.042;6.406;2022-09-12T02:18:46;12.10;99.90
54264;DHT22;40178;53.042;6.406;2022-09-12T02:21:16;12.10;99.90
54264;DHT22;40178;53.042;6.406;2022-09-12T02:23:46;12.10;99.90
54264;DHT22;40178;53.042;6.406;2022-09-12T02:26:24;12.20;99.90
54264;DHT22;40178;53.042;6.406;2022-09-12T02:28:53;12.30;99.90
54264;DHT22;40178;53.042;6.406;2022-09-12T02:34:08;12.30;99.90
54264;DHT22;40178;53.042;6.406;2022-09-12T02:36:51;12.30;99.90
54264;DHT22;40178;53.042;6.406;2022-09-12T02:39:19;12.30;99.90
54264;DHT22;40178;53.042;6.406;2022-09-12T02:41:56;12.30;99.90
54264;DHT22;40178;53.042;6.406;2022-09-12T02:44:24;12.30;99.90
54264;DHT22;40178;53.042;6.406;2022-09-12T02:46:54;12.30;99.90
54264;DHT22;40178;53.042;6.406;2022-09-12T02:49:21;12.30;99.90
54264;DHT22;40178;53.042;6.406;2022-09-12T02:51:47;12.30;99.90
54264;DHT22;40178;53.042;6.406;2022-09-12T02:54:14;12.30;99.90
54264;DHT22;40178;53.042;6.406;2022-09-12T02:56:42;12.40;99.90
54264;DHT22;40178;53.042;6.406;2022-09-12T02:59:12;12.50;99.90
54264;DHT22;40178;53.042;6.406;2022-09-12T03:02:06;12.60;99.90
54264;DHT22;40178;53.042;6.406;2022-09-12T03:16:16;12.50;99.90
54264;DHT22;40178;53.042;6.406;2022-09-12T03:18:54;12.50;99.90
54264;DHT22;40178;53.042;6.406;2022-09-12T03:24:06;12.40;99.90
54264;DHT22;40178;53.042;6.406;2022-09-12T03:26:46;12.40;99.90
54264;DHT22;40178;53.042;6.406;2022-09-12T03:29:14;12.30;99.90
54264;DHT22;40178;53.042;6.406;2022-09-12T03:31:55;12.30;99.90
54264;DHT22;40178;53.042;6.406;2022-09-12T03:34:22;12.30;99.90
54264;DHT22;40178;53.042;6.406;2022-09-12T03:36:48;12.30;99.90
54264;DHT22;40178;53.042;6.406;2022-09-12T03:39:14;12.30;99.90
54264;DHT22;40178;53.042;6.406;2022-09-12T03:41:40;12.20;99.90
54264;DHT22;40178;53.042;6.406;2022-09-12T03:44:05;12.30;99.90
54264;DHT22;40178;53.042;6.406;2022-09-12T03:46:31;12.40;99.90
54264;DHT22;40178;53.042;6.406;2022-09-12T03:48:57;12.30;99.90
54264;DHT22;40178;53.042;6.406;2022-09-12T03:51:22;12.20;99.90
54264;DHT22;40178;53.042;6.406;2022-09-12T03:53:48;12.20;99.90
54264;DHT22;40178;53.042;6.406;2022-09-12T03:56:13;12.20;99.90
54264;DHT22;40178;53.042;6.406;2022-09-12T03:58:39;12.20;99.90
54264;DHT22;40178;53.042;6.406;2022-09-12T04:01:16;12.20;99.90
54264;DHT22;40178;53.042;6.406;2022-09-12T04:03:43;12.20;99.90
54264;DHT22;40178;53.042;6.406;2022-09-12T04:06:12;12.20;99.90
54264;DHT22;40178;53.042;6.406;2022-09-12T04:08:39;12.20;99.90
54264;DHT22;40178;53.042;6.406;2022-09-12T04:11:11;12.10;99.90
54264;DHT22;40178;53.042;6.406;2022-09-12T04:13:37;12.10;99.90
54264;DHT22;40178;53.042;6.406;2022-09-12T04:16:03;12.10;99.90
54264;DHT22;40178;53.042;6.406;2022-09-12T04:18:30;12.20;99.90
54264;DHT22;40178;53.042;6.406;2022-09-12T04:20:56;12.10;99.90
54264;DHT22;40178;53.042;6.406;2022-09-12T04:23:22;12.20;99.90
54264;DHT22;40178;53.042;6.406;2022-09-12T04:25:59;12.10;99.90
54264;DHT22;40178;53.042;6.406;2022-09-12T04:28:26;12.10;99.90
54264;DHT22;40178;53.042;6.406;2022-09-12T04:31:03;12.10;99.90
54264;DHT22;40178;53.042;6.406;2022-09-12T04:33:30;12.10;99.90
54264;DHT22;40178;53.042;6.406;2022-09-12T04:35:56;12.10;99.90
54264;DHT22;40178;53.042;6.406;2022-09-12T04:38:27;12.10;99.90
54264;DHT22;40178;53.042;6.406;2022-09-12T04:40:53;12.30;99.90
54264;DHT22;40178;53.042;6.406;2022-09-12T04:43:18;12.20;99.90
54264;DHT22;40178;53.042;6.406;2022-09-12T04:45:44;12.10;99.90
54264;DHT22;40178;53.042;6.406;2022-09-12T04:48:09;12.20;99.90
54264;DHT22;40178;53.042;6.406;2022-09-12T04:50:35;12.20;99.90
54264;DHT22;40178;53.042;6.406;2022-09-12T04:53:00;12.20;99.90
54264;DHT22;40178;53.042;6.406;2022-09-12T04:55:26;12.30;99.90
54264;DHT22;40178;53.042;6.406;2022-09-12T04:57:51;12.30;99.90
54264;DHT22;40178;53.042;6.406;2022-09-12T05:00:17;12.40;99.90
54264;DHT22;40178;53.042;6.406;2022-09-12T05:02:43;12.40;99.90
54264;DHT22;40178;53.042;6.406;2022-09-12T05:05:09;12.50;99.90
54264;DHT22;40178;53.042;6.406;2022-09-12T05:07:36;12.50;99.90
54264;DHT22;40178;53.042;6.406;2022-09-12T05:10:02;12.60;99.90
54264;DHT22;40178;53.042;6.406;2022-09-12T05:12:29;12.60;99.90
54264;DHT22;40178;53.042;6.406;2022-09-12T05:14:55;12.70;99.90
54264;DHT22;40178;53.042;6.406;2022-09-12T05:17:21;12.70;99.90
54264;DHT22;40178;53.042;6.406;2022-09-12T05:19:47;12.70;99.90
54264;DHT22;40178;53.042;6.406;2022-09-12T05:22:12;12.80;99.90
54264;DHT22;40178;53.042;6.406;2022-09-12T05:24:38;12.90;99.90
54264;DHT22;40178;53.042;6.406;2022-09-12T05:27:07;12.90;99.90
54264;DHT22;40178;53.042;6.406;2022-09-12T05:29:32;12.90;99.90
54264;DHT22;40178;53.042;6.406;2022-09-12T05:31:58;13.00;99.90
54264;DHT22;40178;53.042;6.406;2022-09-12T05:34:24;13.00;99.90
54264;DHT22;40178;53.042;6.406;2022-09-12T05:36:49;13.00;99.90
54264;DHT22;40178;53.042;6.406;2022-09-12T05:39:15;13.00;99.90
54264;DHT22;40178;53.042;6.406;2022-09-12T05:41:41;13.00;99.90
54264;DHT22;40178;53.042;6.406;2022-09-12T05:44:11;13.10;99.90
54264;DHT22;40178;53.042;6.406;2022-09-12T05:46:41;13.20;99.90
54264;DHT22;40178;53.042;6.406;2022-09-12T05:49:09;13.20;99.90
54264;DHT22;40178;53.042;6.406;2022-09-12T05:51:40;13.30;99.90
54264;DHT22;40178;53.042;6.406;2022-09-12T05:54:08;13.30;99.90
54264;DHT22;40178;53.042;6.406;2022-09-12T05:56:38;13.30;99.90
54264;DHT22;40178;53.042;6.406;2022-09-12T05:59:06;13.40;99.90
54264;DHT22;40178;53.042;6.406;2022-09-12T06:01:33;13.40;99.90
54264;DHT22;40178;53.042;6.406;2022-09-12T06:04:00;13.40;99.90
54264;DHT22;40178;53.042;6.406;2022-09-12T06:06:28;13.40;99.90
54264;DHT22;40178;53.042;6.406;2022-09-12T06:08:59;13.50;99.90
54264;DHT22;40178;53.042;6.406;2022-09-12T06:11:27;13.50;99.90
54264;DHT22;40178;53.042;6.406;2022-09-12T06:13:55;13.60;99.90
54264;DHT22;40178;53.042;6.406;2022-09-12T06:16:24;13.50;99.90
54264;DHT22;40178;53.042;6.406;2022-09-12T06:19:00;13.60;99.90
54264;DHT22;40178;53.042;6.406;2022-09-12T06:21:26;13.60;99.90
54264;DHT22;40178;53.042;6.406;2022-09-12T06:23:53;13.70;99.90
54264;DHT22;40178;53.042;6.406;2022-09-12T06:26:19;13.70;99.90
54264;DHT22;40178;53.042;6.406;2022-09-12T06:28:46;13.70;99.90
54264;DHT22;40178;53.042;6.406;2022-09-12T06:31:17;13.80;99.90
54264;DHT22;40178;53.042;6.406;2022-09-12T06:33:49;13.80;99.90
54264;DHT22;40178;53.042;6.406;2022-09-12T06:36:22;13.80;99.90
54264;DHT22;40178;53.042;6.406;2022-09-12T06:38:53;13.80;99.90
54264;DHT22;40178;53.042;6.406;2022-09-12T06:41:19;13.90;99.90
54264;DHT22;40178;53.042;6.406;2022-09-12T06:43:44;14.00;99.90
54264;DHT22;40178;53.042;6.406;2022-09-12T06:46:10;14.00;99.90
54264;DHT22;40178;53.042;6.406;2022-09-12T06:48:37;14.00;99.90
54264;DHT22;40178;53.042;6.406;2022-09-12T06:51:05;14.00;99.90
54264;DHT22;40178;53.042;6.406;2022-09-12T06:53:34;14.10;99.90
54264;DHT22;40178;53.042;6.406;2022-09-12T06:56:05;14.10;99.90
54264;DHT22;40178;53.042;6.406;2022-09-12T06:58:31;14.10;99.90
54264;DHT22;40178;53.042;6.406;2022-09-12T07:01:06;14.20;99.90
54264;DHT22;40178;53.042;6.406;2022-09-12T07:03:33;14.20;99.90
54264;DHT22;40178;53.042;6.406;2022-09-12T07:06:07;14.20;99.90
54264;DHT22;40178;53.042;6.406;2022-09-12T07:08:34;14.30;99.90
54264;DHT22;40178;53.042;6.406;2022-09-12T07:11:22;14.30;99.90
54264;DHT22;40178;53.042;6.406;2022-09-12T07:13:51;14.40;99.90
54264;DHT22;40178;53.042;6.406;2022-09-12T07:16:17;14.40;99.90
54264;DHT22;40178;53.042;6.406;2022-09-12T07:18:43;14.60;99.90
54264;DHT22;40178;53.042;6.406;2022-09-12T07:21:12;14.60;99.90
54264;DHT22;40178;53.042;6.406;2022-09-12T07:23:38;14.80;99.90
54264;DHT22;40178;53.042;6.406;2022-09-12T07:26:05;14.80;99.90
54264;DHT22;40178;53.042;6.406;2022-09-12T07:28:33;14.90;99.90
54264;DHT22;40178;53.042;6.406;2022-09-12T07:31:25;15.00;99.90
54264;DHT22;40178;53.042;6.406;2022-09-12T07:33:51;15.10;99.90
54264;DHT22;40178;53.042;6.406;2022-09-12T07:36:19;15.10;99.90
54264;DHT22;40178;53.042;6.406;2022-09-12T07:38:45;15.10;99.90
54264;DHT22;40178;53.042;6.406;2022-09-12T07:41:17;15.20;99.90
54264;DHT22;40178;53.042;6.406;2022-09-12T07:43:43;15.30;99.90
54264;DHT22;40178;53.042;6.406;2022-09-12T07:46:10;15.20;99.90
54264;DHT22;40178;53.042;6.406;2022-09-12T07:48:36;15.30;99.90
54264;DHT22;40178;53.042;6.406;2022-09-12T07:51:05;15.30;99.90
54264;DHT22;40178;53.042;6.406;2022-09-12T07:53:34;15.40;99.90
54264;DHT22;40178;53.042;6.406;2022-09-12T07:56:01;15.50;99.90
54264;DHT22;40178;53.042;6.406;2022-09-12T07:58:28;15.60;99.90
54264;DHT22;40178;53.042;6.406;2022-09-12T08:01:04;15.70;99.90
54264;DHT22;40178;53.042;6.406;2022-09-12T08:03:30;15.80;99.90
54264;DHT22;40178;53.042;6.406;2022-09-12T08:06:03;15.80;99.90
54264;DHT22;40178;53.042;6.406;2022-09-12T08:08:28;15.90;99.90
54264;DHT22;40178;53.042;6.406;2022-09-12T08:10:58;15.90;99.90
54264;DHT22;40178;53.042;6.406;2022-09-12T08:13:25;16.00;99.90
54264;DHT22;40178;53.042;6.406;2022-09-12T08:15:56;16.00;99.90
54264;DHT22;40178;53.042;6.406;2022-09-12T08:18:22;16.00;99.90
54264;DHT22;40178;53.042;6.406;2022-09-12T08:20:47;16.00;99.90
54264;DHT22;40178;53.042;6.406;2022-09-12T08:23:13;16.00;99.90
54264;DHT22;40178;53.042;6.406;2022-09-12T08:25:38;16.00;99.90
54264;DHT22;40178;53.042;6.406;2022-09-12T08:28:04;16.10;99.90
54264;DHT22;40178;53.042;6.406;2022-09-12T08:30:29;16.10;99.90
54264;DHT22;40178;53.042;6.406;2022-09-12T08:32:55;16.30;99.90
54264;DHT22;40178;53.042;6.406;2022-09-12T08:35:20;16.40;99.90
54264;DHT22;40178;53.042;6.406;2022-09-12T08:37:46;16.40;99.90
54264;DHT22;40178;53.042;6.406;2022-09-12T08:40:15;16.60;99.90
54264;DHT22;40178;53.042;6.406;2022-09-12T08:43:03;16.70;99.90
54264;DHT22;40178;53.042;6.406;2022-09-12T08:45:44;16.90;99.90
54264;DHT22;40178;53.042;6.406;2022-09-12T08:48:12;17.10;99.90
54264;DHT22;40178;53.042;6.406;2022-09-12T08:50:39;17.10;99.90
54264;DHT22;40178;53.042;6.406;2022-09-12T08:53:15;17.30;99.90
54264;DHT22;40178;53.042;6.406;2022-09-12T08:55:51;17.30;99.90
54264;DHT22;40178;53.042;6.406;2022-09-12T08:58:22;17.50;99.90
54264;DHT22;40178;53.042;6.406;2022-09-12T09:06:31;17.90;99.90
54264;DHT22;40178;53.042;6.406;2022-09-12T09:12:25;18.10;99.90
54264;DHT22;40178;53.042;6.406;2022-09-12T09:15:13;18.10;99.90
54264;DHT22;40178;53.042;6.406;2022-09-12T09:18:03;18.10;99.40
54264;DHT22;40178;53.042;6.406;2022-09-12T09:20:50;18.20;99.90
54264;DHT22;40178;53.042;6.406;2022-09-12T09:23:28;18.20;99.90
54264;DHT22;40178;53.042;6.406;2022-09-12T09:25:57;18.30;94.50
54264;DHT22;40178;53.042;6.406;2022-09-12T09:28:45;18.30;99.90
54264;DHT22;40178;53.042;6.406;2022-09-12T09:31:37;18.40;99.90
54264;DHT22;40178;53.042;6.406;2022-09-12T09:34:19;18.60;99.90
54264;DHT22;40178;53.042;6.406;2022-09-12T09:36:49;18.80;98.90
54264;DHT22;40178;53.042;6.406;2022-09-12T09:44:58;19.30;98.60
54264;DHT22;40178;53.042;6.406;2022-09-12T09:47:24;19.50;96.50
54264;DHT22;40178;53.042;6.406;2022-09-12T09:49:50;19.30;93.70
54264;DHT22;40178;53.042;6.406;2022-09-12T09:52:19;19.30;93.10
54264;DHT22;40178;53.042;6.406;2022-09-12T09:54:59;19.00;90.60
54264;DHT22;40178;53.042;6.406;2022-09-12T10:03:06;19.40;80.80
54264;DHT22;40178;53.042;6.406;2022-09-12T10:05:51;19.50;70.60
54264;DHT22;40178;53.042;6.406;2022-09-12T10:08:24;19.70;75.20
54264;DHT22;40178;53.042;6.406;2022-09-12T10:13:35;19.80;71.80
54264;DHT22;40178;53.042;6.406;2022-09-12T10:16:16;20.00;66.20
54264;DHT22;40178;53.042;6.406;2022-09-12T10:18:43;20.10;65.70
54264;DHT22;40178;53.042;6.406;2022-09-12T10:21:26;20.40;58.20
54264;DHT22;40178;53.042;6.406;2022-09-12T10:24:21;20.60;54.20
54264;DHT22;40178;53.042;6.406;2022-09-12T10:26:55;20.50;7.20
54264;DHT22;40178;53.042;6.406;2022-09-12T10:29:24;20.70;44.70
54264;DHT22;40178;53.042;6.406;2022-09-12T10:31:55;20.90;60.70
54264;DHT22;40178;53.042;6.406;2022-09-12T10:34:33;21.10;42.10
54264;DHT22;40178;53.042;6.406;2022-09-12T10:37:08;21.20;46.80
54264;DHT22;40178;53.042;6.406;2022-09-12T10:39:34;21.30;31.70
54264;DHT22;40178;53.042;6.406;2022-09-12T10:42:03;21.20;1.00
54264;DHT22;40178;53.042;6.406;2022-09-12T10:44:32;21.30;11.40
54264;DHT22;40178;53.042;6.406;2022-09-12T10:47:00;21.30;18.70
54264;DHT22;40178;53.042;6.406;2022-09-12T10:49:43;21.40;12.10
54264;DHT22;40178;53.042;6.406;2022-09-12T10:52:20;21.60;11.20
54264;DHT22;40178;53.042;6.406;2022-09-12T10:54:48;21.60;1.00
54264;DHT22;40178;53.042;6.406;2022-09-12T11:00:08;22.00;1.00
54264;DHT22;40178;53.042;6.406;2022-09-12T11:03:01;22.10;1.00
54264;DHT22;40178;53.042;6.406;2022-09-12T11:05:37;22.10;1.00
54264;DHT22;40178;53.042;6.406;2022-09-12T11:13:58;22.30;1.00
54264;DHT22;40178;53.042;6.406;2022-09-12T11:16:58;22.40;1.00
54264;DHT22;40178;53.042;6.406;2022-09-12T11:22:19;22.60;1.00
54264;DHT22;40178;53.042;6.406;2022-09-12T11:25:27;22.60;1.00
54264;DHT22;40178;53.042;6.406;2022-09-12T11:28:03;22.70;99.90
54264;DHT22;40178;53.042;6.406;2022-09-12T11:30:38;22.70;1.00
54264;DHT22;40178;53.042;6.406;2022-09-12T11:33:34;22.60;1.00
54264;DHT22;40178;53.042;6.406;2022-09-12T11:36:04;22.60;1.00
54264;DHT22;40178;53.042;6.406;2022-09-12T11:38:55;22.60;1.00
54264;DHT22;40178;53.042;6.406;2022-09-12T11:41:30;22.90;99.90
54264;DHT22;40178;53.042;6.406;2022-09-12T11:46:43;22.80;99.90
54264;DHT22;40178;53.042;6.406;2022-09-12T11:52:24;22.60;99.90
54264;DHT22;40178;53.042;6.406;2022-09-12T11:54:57;22.70;99.90
54264;DHT22;40178;53.042;6.406;2022-09-12T11:57:54;22.60;90.00
54264;DHT22;40178;53.042;6.406;2022-09-12T12:00:35;22.70;1.00
54264;DHT22;40178;53.042;6.406;2022-09-12T12:03:30;22.70;99.90
54264;DHT22;40178;53.042;6.406;2022-09-12T12:05:56;23.00;99.90
54264;DHT22;40178;53.042;6.406;2022-09-12T12:08:25;23.10;96.00
54264;DHT22;40178;53.042;6.406;2022-09-12T12:11:03;23.20;99.90
54264;DHT22;40178;53.042;6.406;2022-09-12T12:18:29;23.50;1.00
54264;DHT22;40178;53.042;6.406;2022-09-12T12:34:36;23.70;99.90
54264;DHT22;40178;53.042;6.406;2022-09-12T12:44:58;23.90;99.90
54264;DHT22;40178;53.042;6.406;2022-09-12T12:49:58;23.90;10.70
54264;DHT22;40178;53.042;6.406;2022-09-12T12:52:28;23.90;99.90
54264;DHT22;40178;53.042;6.406;2022-09-12T12:54:56;23.90;99.90
54264;DHT22;40178;53.042;6.406;2022-09-12T12:57:48;23.80;99.90
54264;DHT22;40178;53.042;6.406;2022-09-12T13:05:46;24.10;99.90
54264;DHT22;40178;53.042;6.406;2022-09-12T13:10:51;23.80;99.90
54264;DHT22;40178;53.042;6.406;2022-09-12T13:13:26;23.80;99.90
54264;DHT22;40178;53.042;6.406;2022-09-12T13:15:53;23.90;1.00
54264;DHT22;40178;53.042;6.406;2022-09-12T13:18:27;23.90;1.00
54264;DHT22;40178;53.042;6.406;2022-09-12T13:20:58;23.90;78.20
54264;DHT22;40178;53.042;6.406;2022-09-12T13:23:30;24.00;13.60
54264;DHT22;40178;53.042;6.406;2022-09-12T13:25:58;23.90;99.90
54264;DHT22;40178;53.042;6.406;2022-09-12T13:28:27;23.90;1.00
54264;DHT22;40178;53.042;6.406;2022-09-12T13:33:52;23.90;99.90
54264;DHT22;40178;53.042;6.406;2022-09-12T13:36:42;24.00;99.90
54264;DHT22;40178;53.042;6.406;2022-09-12T13:39:20;24.00;99.90
54264;DHT22;40178;53.042;6.406;2022-09-12T13:42:31;24.10;99.90
54264;DHT22;40178;53.042;6.406;2022-09-12T13:47:46;24.20;99.90
54264;DHT22;40178;53.042;6.406;2022-09-12T13:50:19;24.10;1.50
54264;DHT22;40178;53.042;6.406;2022-09-12T13:52:56;24.20;1.00
54264;DHT22;40178;53.042;6.406;2022-09-12T13:55:28;24.30;99.90
54264;DHT22;40178;53.042;6.406;2022-09-12T13:58:20;24.30;99.90
54264;DHT22;40178;53.042;6.406;2022-09-12T14:00:46;24.20;1.00
54264;DHT22;40178;53.042;6.406;2022-09-12T14:03:32;24.20;1.00
54264;DHT22;40178;53.042;6.406;2022-09-12T14:06:17;24.30;1.00
54264;DHT22;40178;53.042;6.406;2022-09-12T14:08:45;24.60;97.00
54264;DHT22;40178;53.042;6.406;2022-09-12T14:11:28;24.70;14.00
54264;DHT22;40178;53.042;6.406;2022-09-12T14:13:55;24.90;1.00
54264;DHT22;40178;53.042;6.406;2022-09-12T14:16:22;24.90;1.00
54264;DHT22;40178;53.042;6.406;2022-09-12T14:18:48;24.90;99.90
54264;DHT22;40178;53.042;6.406;2022-09-12T14:23:55;24.90;99.90
54264;DHT22;40178;53.042;6.406;2022-09-12T14:26:22;24.90;1.00
54264;DHT22;40178;53.042;6.406;2022-09-12T14:28:49;24.70;99.90
54264;DHT22;40178;53.042;6.406;2022-09-12T14:31:22;24.60;99.90
54264;DHT22;40178;53.042;6.406;2022-09-12T14:36:34;24.50;99.90
54264;DHT22;40178;53.042;6.406;2022-09-12T14:39:05;24.50;99.90
54264;DHT22;40178;53.042;6.406;2022-09-12T14:41:37;24.40;99.90
54264;DHT22;40178;53.042;6.406;2022-09-12T14:44:14;24.40;99.90
54264;DHT22;40178;53.042;6.406;2022-09-12T14:46:41;24.20;99.90
54264;DHT22;40178;53.042;6.406;2022-09-12T14:51:47;24.30;99.90
54264;DHT22;40178;53.042;6.406;2022-09-12T14:56:57;24.20;1.00
54264;DHT22;40178;53.042;6.406;2022-09-12T14:59:36;24.20;99.90
54264;DHT22;40178;53.042;6.406;2022-09-12T15:10:02;24.00;1.00
54264;DHT22;40178;53.042;6.406;2022-09-12T15:12:28;24.00;99.90
54264;DHT22;40178;53.042;6.406;2022-09-12T15:15:03;23.90;99.90
54264;DHT22;40178;53.042;6.406;2022-09-12T15:17:31;23.90;99.90
54264;DHT22;40178;53.042;6.406;2022-09-12T15:19:57;23.80;99.90
54264;DHT22;40178;53.042;6.406;2022-09-12T15:22:23;23.80;99.90
54264;DHT22;40178;53.042;6.406;2022-09-12T15:24:50;23.80;99.90
54264;DHT22;40178;53.042;6.406;2022-09-12T15:27:15;23.80;99.90
54264;DHT22;40178;53.042;6.406;2022-09-12T15:29:42;23.90;1.00
54264;DHT22;40178;53.042;6.406;2022-09-12T15:32:12;23.90;99.90
54264;DHT22;40178;53.042;6.406;2022-09-12T15:34:39;23.90;99.90
54264;DHT22;40178;53.042;6.406;2022-09-12T15:37:11;23.80;99.90
54264;DHT22;40178;53.042;6.406;2022-09-12T15:39:38;23.80;99.90
54264;DHT22;40178;53.042;6.406;2022-09-12T15:42:03;23.70;99.90
54264;DHT22;40178;53.042;6.406;2022-09-12T15:44:29;23.60;99.90
54264;DHT22;40178;53.042;6.406;2022-09-12T15:46:54;23.50;99.90
54264;DHT22;40178;53.042;6.406;2022-09-12T15:49:20;23.40;99.90
54264;DHT22;40178;53.042;6.406;2022-09-12T15:51:46;23.10;99.90
54264;DHT22;40178;53.042;6.406;2022-09-12T15:54:13;23.10;99.90
54264;DHT22;40178;53.042;6.406;2022-09-12T15:56:39;23.00;99.90
54264;DHT22;40178;53.042;6.406;2022-09-12T15:59:05;23.00;99.90
54264;DHT22;40178;53.042;6.406;2022-09-12T16:01:30;22.90;99.90
54264;DHT22;40178;53.042;6.406;2022-09-12T16:03:56;22.80;99.90
54264;DHT22;40178;53.042;6.406;2022-09-12T16:06:22;22.70;99.90
54264;DHT22;40178;53.042;6.406;2022-09-12T16:08:48;22.60;99.90
54264;DHT22;40178;53.042;6.406;2022-09-12T16:11:20;22.60;99.90
54264;DHT22;40178;53.042;6.406;2022-09-12T16:13:46;22.60;99.90
54264;DHT22;40178;53.042;6.406;2022-09-12T16:16:11;22.60;99.90
54264;DHT22;40178;53.042;6.406;2022-09-12T16:18:40;22.60;99.90
54264;DHT22;40178;53.042;6.406;2022-09-12T16:21:05;22.50;99.90
54264;DHT22;40178;53.042;6.406;2022-09-12T16:23:31;22.40;99.90
54264;DHT22;40178;53.042;6.406;2022-09-12T16:28:22;22.40;1.00
54264;DHT22;40178;53.042;6.406;2022-09-12T16:30:59;22.50;1.00
54264;DHT22;40178;53.042;6.406;2022-09-12T16:33:25;22.40;1.00
54264;DHT22;40178;53.042;6.406;2022-09-12T16:35:52;22.30;1.00
54264;DHT22;40178;53.042;6.406;2022-09-12T16:38:21;22.10;1.00
54264;DHT22;40178;53.042;6.406;2022-09-12T16:40:46;22.10;1.00
54264;DHT22;40178;53.042;6.406;2022-09-12T16:43:12;22.10;1.00
54264;DHT22;40178;53.042;6.406;2022-09-12T16:45:42;22.00;99.90
54264;DHT22;40178;53.042;6.406;2022-09-12T16:48:08;21.90;99.90
54264;DHT22;40178;53.042;6.406;2022-09-12T16:50:33;21.80;1.00
54264;DHT22;40178;53.042;6.406;2022-09-12T16:52:59;21.80;68.70
54264;DHT22;40178;53.042;6.406;2022-09-12T16:55:25;21.80;54.30
54264;DHT22;40178;53.042;6.406;2022-09-12T16:57:53;21.80;99.90
54264;DHT22;40178;53.042;6.406;2022-09-12T17:00:19;21.70;99.90
54264;DHT22;40178;53.042;6.406;2022-09-12T17:02:45;21.70;99.90
54264;DHT22;40178;53.042;6.406;2022-09-12T17:05:12;21.60;1.00
54264;DHT22;40178;53.042;6.406;2022-09-12T17:07:40;21.60;99.90
54264;DHT22;40178;53.042;6.406;2022-09-12T17:10:06;21.50;1.00
54264;DHT22;40178;53.042;6.406;2022-09-12T17:12:31;21.40;1.00
54264;DHT22;40178;53.042;6.406;2022-09-12T17:14:57;21.40;38.60
54264;DHT22;40178;53.042;6.406;2022-09-12T17:17:23;21.30;99.90
54264;DHT22;40178;53.042;6.406;2022-09-12T17:19:48;21.30;1.00
54264;DHT22;40178;53.042;6.406;2022-09-12T17:22:14;21.20;60.60
54264;DHT22;40178;53.042;6.406;2022-09-12T17:24:40;21.10;99.90
54264;DHT22;40178;53.042;6.406;2022-09-12T17:27:06;20.90;99.90
54264;DHT22;40178;53.042;6.406;2022-09-12T17:29:32;20.90;99.90
54264;DHT22;40178;53.042;6.406;2022-09-12T17:31:59;20.70;1.00
54264;DHT22;40178;53.042;6.406;2022-09-12T17:34:25;20.60;1.00
54264;DHT22;40178;53.042;6.406;2022-09-12T17:36:50;20.50;1.00
54264;DHT22;40178;53.042;6.406;2022-09-12T17:39:16;20.50;1.00
54264;DHT22;40178;53.042;6.406;2022-09-12T17:41:41;20.40;1.00
54264;DHT22;40178;53.042;6.406;2022-09-12T17:44:10;20.30;1.00
54264;DHT22;40178;53.042;6.406;2022-09-12T17:46:37;20.20;1.00
54264;DHT22;40178;53.042;6.406;2022-09-12T17:49:06;20.10;1.00
54264;DHT22;40178;53.042;6.406;2022-09-12T17:51:32;20.00;1.00
54264;DHT22;40178;53.042;6.406;2022-09-12T17:56:26;20.00;1.00
54264;DHT22;40178;53.042;6.406;2022-09-12T17:58:54;19.90;1.00
54264;DHT22;40178;53.042;6.406;2022-09-12T18:01:19;19.80;1.00
54264;DHT22;40178;53.042;6.406;2022-09-12T18:04:04;19.70;1.00
54264;DHT22;40178;53.042;6.406;2022-09-12T18:06:31;19.60;1.00
54264;DHT22;40178;53.042;6.406;2022-09-12T18:09:02;19.60;1.00
54264;DHT22;40178;53.042;6.406;2022-09-12T18:11:28;19.60;1.00